Metar (rayon 200 km actualisée toutes les 30 minutes)






LFBU - Brie/Champniers, France
Distance de la station: SSE 07km
Mise à jour: 28/03/2015 16:30
Faible bruine, Couvert
Faible bruine, Couvert
 Wind from OSO
Vent: OSO 22 km/h
Température: 11°C
Point de Rosée: 10°C
Humidité: 94%
Baromètre: 1025 hPa
Récapitulatifs: Light Drizzle
Nuages: Couvert
Visibilité: 10 km
Nuages details: Couvert 152 m
2015/03/28 15:30 LFBU 281530Z AUTO 25012KT 9999 -DZ OVC005 11/10 Q1025
LFBG - Cognac/Chateaubernard, France
Distance de la station: OSO 35km
Mise à jour: 28/03/2015 16:30
nuageux
nuageux
 Wind from O
Vent: O 28 km/h
Température: 12°C
Point de Rosée: 10°C
Humidité: 88%
Baromètre: 1025 hPa
Nuages: nuageux
Visibilité: 9 km
Nuages details: nuageux 457 m
nuageux 610 m
nuageux 853 m
2015/03/28 15:30 LFBG 281530Z AUTO 26015KT 9000 BKN015 BKN020 BKN028 12/10 Q1025
 
LFBL - Limoges/Bellegarde, France
Distance de la station: E 82km
Mise à jour: 28/03/2015 16:30
Couvert
Couvert
 Wind from OSO
Vent: OSO 15 km/h
Température: 10°C
Wind Chill: 8°C
Point de Rosée: 9°C
Humidité: 94%
Baromètre: 1023 hPa
Nuages: Couvert
Visibilité: 10 km
Nuages details: nuageux 122 m
Couvert 244 m
2015/03/28 15:30 LFBL 281530Z AUTO 25008KT 220V280 9999 BKN004 OVC008 10/09 Q1023
LFBI - Poitiers/France
Distance de la station: N 93km
Mise à jour: 28/03/2015 16:30
Couvert
Couvert
 Wind from OSO
Vent: OSO 24 km/h
Température: 13°C
Point de Rosée: 10°C
Humidité: 82%
Baromètre: 1022 hPa
Nuages: Couvert
Visibilité: 10 km
Nuages details: nuageux 366 m
nuageux 579 m
Couvert 853 m
2015/03/28 15:30 LFBI 281530Z AUTO 24013KT 9999 BKN012 BKN019 OVC028 13/10 Q1022
 
LFBH - La Rochelle/France
Distance de la station: ONO 106km
Mise à jour: 28/03/2015 16:30
Couvert
Couvert
 Wind from OSO
Vent: OSO 22 km/h
Température: 12°C
Point de Rosée: 11°C
Humidité: 94%
Baromètre: 1024 hPa
Nuages: Couvert
Visibilité: 10 km
Nuages details: Couvert 244 m
2015/03/28 15:30 LFBH 281530Z AUTO 25012KT 9999 OVC008 12/11 Q1024
LFBE - Bergerac/France
Distance de la station: SSE 107km
Mise à jour: 28/03/2015 16:30
nuageux
nuageux
 Wind from O
Vent: O 30 km/h
Température: 12°C
Point de Rosée: 10°C
Humidité: 88%
Baromètre: 1026 hPa
Nuages: nuageux
Visibilité: 6 km
Nuages details: partiellement nuageux 305 m
nuageux 488 m
nuageux 701 m
2015/03/28 15:30 LFBE 281530Z AUTO 27016KT 6000 SCT010 BKN016 BKN023 12/10 Q1026
 
LFBD - Bordeaux/France
Distance de la station: SSO 121km
Mise à jour: 28/03/2015 16:30
Couvert
Couvert
 Wind from O
Vent: O 28 km/h
Température: 13°C
Point de Rosée: 9°C
Humidité: 77%
Baromètre: 1027 hPa
Nuages: Couvert
Visibilité: 10 km
Nuages details: nuageux 671 m
nuageux 823 m
Couvert 1006 m
2015/03/28 15:30 LFBD 281530Z AUTO 26015KT 9999 BKN022 BKN027 OVC033 13/09 Q1027
LFRI - La Roche-sur-Yon/France
Distance de la station: NO 156km
Mise à jour: 28/03/2015 16:30
Couvert
Couvert
 Wind from O
Vent: O 30 km/h
Température: 12°C
Point de Rosée: 10°C
Humidité: 88%
Baromètre: 1023 hPa
Nuages: Couvert
Visibilité: 10 km
Nuages details: nuageux 335 m
Couvert 518 m
2015/03/28 15:30 LFRI 281530Z AUTO 26016KT 9999 BKN011 OVC017 12/10 Q1023
 
LFBC - Cazaux/France
Distance de la station: SO 167km
Mise à jour: 28/03/2015 16:30
Couvert
Couvert
 Wind from OSO
Vent: OSO 19 km/h
Température: 13°C
Point de Rosée: 10°C
Humidité: 82%
Baromètre: 1028 hPa
Nuages: Couvert
Visibilité: 10 km
Nuages details: Quelques Nuages 457 m
Couvert 1128 m
2015/03/28 15:30 LFBC 281530Z AUTO 25010KT 190V280 9999 FEW015 OVC037 13/10 Q1028
LFLX - Chateauroux/France
Distance de la station: NE 174km
Mise à jour: 28/03/2015 16:30
nuageux
nuageux
 Wind from OSO
Vent: OSO 31 km/h
Température: 13°C
Point de Rosée: 10°C
Humidité: 82%
Baromètre: 1022 hPa
Nuages: nuageux
Visibilité: 10 km
Nuages details: nuageux 488 m
2015/03/28 15:30 LFLX 281530Z 25017KT 9999 BKN016 13/10 Q1022 NOSIG
 
LFBA - Agen/France
Distance de la station: SSE 179km
Mise à jour: 28/03/2015 16:30
nuageux
nuageux
 Wind from O
Vent: O 30 km/h
Température: 14°C
Point de Rosée: 11°C
Humidité: 82%
Baromètre: 1027 hPa
Nuages: nuageux
Visibilité: 10 km
Nuages details: nuageux 549 m
nuageux 823 m
nuageux 1280 m
2015/03/28 15:30 LFBA 281530Z AUTO 28016KT 9999 BKN018 BKN027 BKN042 14/11 Q1027